Walker, Minnesota
Current Conditions -  °F | °C
As of 5:55 AM on Wednesday 28 Jan 2015 (Local Time) from KY49 Reporting Station
Haze Haze  
Wind Chill: 21°   Ceiling: 500
Heat Index: 29°   Visibility: 5mi
Dew Point: 28°   Wind: 9mph
Humidity: 95%   Direction: 150°SSE
Pressure: 29.89"   Gusts: NA
Location:  47.1°N, 94.59°W
Report Text: KY49 281155Z AUTO 15008KT 5SM BR OVC005 M01/M02 A2989 RMK AO2 T10151022 11012 21015
Loading
Personal Weather Stations






























Interactive Weather Map New forecast layout! Learn more

10-Day Weather Forecast

Advertisements
Track Severe Weather on mobile